createdAt,value
2016-09-11T00:00:55.733Z,61.6
2016-09-11T00:01:55.727Z,61.69
2016-09-11T00:02:55.692Z,61.5
2016-09-11T00:03:56.044Z,61.5
2016-09-11T00:04:55.668Z,61.6
2016-09-11T00:05:55.668Z,61.79
2016-09-11T00:06:55.626Z,61.6
2016-09-11T00:07:55.609Z,61.5
2016-09-11T00:08:55.601Z,61.5
2016-09-11T00:09:55.894Z,61.69
2016-09-11T00:10:55.626Z,61.5
2016-09-11T00:11:55.561Z,61.5
2016-09-11T00:12:55.667Z,61.69
2016-09-11T00:13:55.504Z,61.5
2016-09-11T00:14:55.487Z,61.5
2016-09-11T00:15:55.464Z,61.5
2016-09-11T00:16:55.522Z,61.5
2016-09-11T00:17:55.434Z,61.4
2016-09-11T00:18:55.733Z,61.5
2016-09-11T00:19:55.462Z,61.69
2016-09-11T00:20:55.376Z,61.6
2016-09-11T00:21:55.676Z,61.6
2016-09-11T00:22:55.685Z,61.57
2016-09-11T00:23:55.361Z,61.5
2016-09-11T00:24:55.623Z,61.5
2016-09-11T00:25:55.608Z,61.47
2016-09-11T00:26:55.609Z,61.57
2016-09-11T00:27:55.600Z,61.4
2016-09-11T00:28:55.566Z,61.5
2016-09-11T00:29:55.554Z,61.5
2016-09-11T00:30:55.207Z,61.6
2016-09-11T00:31:55.200Z,61.3
2016-09-11T00:32:55.487Z,61.3
2016-09-11T00:33:55.199Z,61.69
2016-09-11T00:34:55.150Z,61.47
2016-09-11T00:35:55.119Z,61.27
2016-09-11T00:36:55.108Z,61.37
2016-09-11T00:37:55.139Z,61.3
2016-09-11T00:38:55.074Z,61.27
2016-09-11T00:39:55.073Z,61.66
2016-09-11T00:40:55.469Z,61.66
2016-09-11T00:41:55.038Z,61.47
2016-09-11T00:42:55.003Z,61.47
2016-09-11T00:43:54.976Z,61.21
2016-09-11T00:44:54.967Z,61.5
2016-09-11T00:45:54.971Z,61.6
2016-09-11T00:46:54.932Z,61.47
2016-09-11T00:47:54.917Z,61.5
2016-09-11T00:48:54.973Z,61.79
2016-09-11T00:49:54.893Z,61.5
2016-09-11T00:50:54.861Z,61.47
2016-09-11T00:51:55.161Z,61.5
2016-09-11T00:52:54.822Z,61.5
2016-09-11T00:53:54.813Z,61.5
2016-09-11T00:54:55.104Z,61.69
2016-09-11T00:55:54.769Z,61.27
2016-09-11T00:56:54.787Z,61.4
2016-09-11T00:57:55.053Z,61.47
2016-09-11T00:58:55.095Z,61.37
2016-09-11T00:59:54.704Z,61.69
2016-09-11T01:00:55.011Z,61.66
2016-09-11T01:01:54.671Z,61.27
2016-09-11T01:02:54.712Z,61.79
2016-09-11T01:03:55.014Z,61.47
2016-09-11T01:04:54.616Z,61.5
2016-09-11T01:05:54.639Z,61.18
2016-09-11T01:06:54.579Z,61.57
2016-09-11T01:07:54.903Z,61.3
2016-09-11T01:08:54.560Z,61.27
2016-09-11T01:09:54.569Z,61.27
2016-09-11T01:10:54.529Z,61.4
2016-09-11T01:11:54.503Z,61.66
2016-09-11T01:12:54.478Z,61.21
2016-09-11T01:13:54.790Z,61.18
2016-09-11T01:14:54.474Z,61.4
2016-09-11T01:15:54.420Z,61.5
2016-09-11T01:16:54.409Z,61.69
2016-09-11T01:17:54.707Z,61.4
2016-09-11T01:18:54.683Z,61.37
2016-09-11T01:19:54.376Z,61.69
2016-09-11T01:20:54.333Z,61.21
2016-09-11T01:21:54.319Z,61.66
2016-09-11T01:22:54.618Z,61.66
2016-09-11T01:23:54.282Z,61.57
2016-09-11T01:24:54.265Z,61.5
2016-09-11T01:25:54.253Z,61.57
2016-09-11T01:26:54.234Z,61.47
2016-09-11T01:27:54.539Z,61.5
2016-09-11T01:28:54.205Z,61.6
2016-09-11T01:29:54.189Z,61.27
2016-09-11T01:30:54.222Z,61.57
2016-09-11T01:31:54.168Z,61.66
2016-09-11T01:32:54.137Z,61.47
2016-09-11T01:33:54.110Z,61.5
2016-09-11T01:34:54.101Z,61.47
2016-09-11T01:35:54.070Z,61.57
2016-09-11T01:36:54.382Z,61.27
2016-09-11T01:37:54.045Z,61.95
2016-09-11T01:38:54.371Z,61.76
2016-09-11T01:39:54.010Z,61.4
2016-09-11T01:40:54.308Z,61.57
2016-09-11T01:41:53.983Z,61.47
2016-09-11T01:42:54.292Z,61.86
2016-09-11T01:43:53.949Z,61.86
2016-09-11T01:44:53.919Z,61.66
2016-09-11T01:45:53.902Z,61.57
2016-09-11T01:46:53.884Z,62.05
2016-09-11T01:47:53.921Z,61.76
2016-09-11T01:48:53.862Z,62.24
2016-09-11T01:49:53.852Z,61.86
2016-09-11T01:50:53.840Z,62.44
2016-09-11T01:51:53.800Z,62.15
2016-09-11T01:52:53.778Z,61.47
2016-09-11T01:53:54.111Z,62.15
2016-09-11T01:54:53.745Z,61.57
2016-09-11T01:55:53.727Z,61.76
2016-09-11T01:56:53.714Z,61.86
2016-09-11T01:57:54.010Z,61.47
2016-09-11T01:58:53.688Z,61.57
2016-09-11T01:59:53.971Z,61.57
2016-09-11T02:00:53.636Z,61.66
2016-09-11T02:01:53.625Z,61.57
2016-09-11T02:02:53.929Z,61.47
2016-09-11T02:03:53.942Z,61.47
2016-09-11T02:04:53.570Z,61.37
2016-09-11T02:05:53.550Z,61.57
2016-09-11T02:06:53.847Z,61.37
2016-09-11T02:07:53.520Z,61.37
2016-09-11T02:08:53.502Z,61.47
2016-09-11T02:09:53.490Z,61.37
2016-09-11T02:10:53.465Z,61.37
2016-09-11T02:11:53.446Z,61.47
2016-09-11T02:12:53.421Z,61.47
2016-09-11T02:13:53.410Z,61.57
2016-09-11T02:14:53.797Z,61.47
2016-09-11T02:15:53.393Z,61.47
2016-09-11T02:16:53.366Z,61.47
2016-09-11T02:17:53.365Z,61.57
2016-09-11T02:18:53.340Z,61.57
2016-09-11T02:19:53.639Z,61.37
2016-09-11T02:20:53.288Z,61.37
2016-09-11T02:21:53.276Z,61.37
2016-09-11T02:22:53.574Z,61.18
2016-09-11T02:23:53.567Z,61.37
2016-09-11T02:24:53.232Z,61.47
2016-09-11T02:25:53.520Z,61.57
2016-09-11T02:26:53.186Z,61.37
2016-09-11T02:27:53.178Z,61.47
2016-09-11T02:28:53.157Z,61.66
2016-09-11T02:29:53.449Z,61.37
2016-09-11T02:30:53.121Z,61.76
2016-09-11T02:31:53.181Z,61.66
2016-09-11T02:32:53.397Z,61.76
2016-09-11T02:33:53.074Z,61.76
2016-09-11T02:34:53.394Z,61.95
2016-09-11T02:35:53.366Z,61.95
2016-09-11T02:36:53.041Z,61.76
2016-09-11T02:37:52.993Z,61.79
2016-09-11T02:38:53.295Z,61.57
2016-09-11T02:39:53.272Z,61.57
2016-09-11T02:40:53.312Z,61.66
2016-09-11T02:41:52.940Z,61.57
2016-09-11T02:42:52.942Z,61.86
2016-09-11T02:43:52.886Z,61.57
2016-09-11T02:44:52.872Z,61.47
2016-09-11T02:45:52.858Z,62.05
2016-09-11T02:46:52.845Z,61.57
2016-09-11T02:47:52.823Z,61.95
2016-09-11T02:48:53.124Z,61.95
2016-09-11T02:49:53.125Z,61.66
2016-09-11T02:50:52.779Z,62.24
2016-09-11T02:51:52.752Z,61.76
2016-09-11T02:52:52.733Z,62.05
2016-09-11T02:53:52.724Z,62.34
2016-09-11T02:54:52.718Z,61.95
2016-09-11T02:55:52.689Z,62.34
2016-09-11T02:56:52.663Z,62.05
2016-09-11T02:57:52.963Z,61.86
2016-09-11T02:58:52.636Z,61.57
2016-09-11T02:59:52.928Z,61.08
2016-09-11T03:00:52.916Z,60.89
2016-09-11T03:01:52.583Z,60.86
2016-09-11T03:02:52.564Z,61.34
2016-09-11T03:03:52.858Z,61.44
2016-09-11T03:04:52.523Z,60.96
2016-09-11T03:05:52.509Z,61.05
2016-09-11T03:06:52.841Z,60.86
2016-09-11T03:07:52.468Z,61.25
2016-09-11T03:08:52.459Z,61.7
2016-09-11T03:09:52.436Z,61.51
2016-09-11T03:10:52.732Z,61.51
2016-09-11T03:11:52.407Z,61.51
2016-09-11T03:12:52.385Z,61.54
2016-09-11T03:13:52.689Z,61.7
2016-09-11T03:14:52.356Z,61.44
2016-09-11T03:15:52.401Z,61.51
2016-09-11T03:16:52.643Z,61.41
2016-09-11T03:17:52.303Z,61.8
2016-09-11T03:18:52.285Z,61.51
2016-09-11T03:19:52.274Z,61.51
2016-09-11T03:20:52.256Z,61.41
2016-09-11T03:21:52.242Z,61.02
2016-09-11T03:22:52.552Z,60.93
2016-09-11T03:23:52.207Z,60.64
2016-09-11T03:24:52.519Z,60.83
2016-09-11T03:25:52.177Z,60.83
2016-09-11T03:26:52.540Z,60.67
2016-09-11T03:27:52.139Z,61.15
2016-09-11T03:28:52.138Z,60.73
2016-09-11T03:29:52.118Z,60.83
2016-09-11T03:30:52.407Z,61.31
2016-09-11T03:31:52.406Z,60.83
2016-09-11T03:32:52.395Z,60.54
2016-09-11T03:33:52.364Z,60.64
2016-09-11T03:34:52.388Z,60.64
2016-09-11T03:35:52.020Z,60.64
2016-09-11T03:36:52.358Z,60.54
2016-09-11T03:37:52.341Z,60.64
2016-09-11T03:38:52.289Z,60.73
2016-09-11T03:39:52.331Z,60.73
2016-09-11T03:40:51.941Z,60.83
2016-09-11T03:41:51.933Z,60.93
2016-09-11T03:42:51.902Z,61.02
2016-09-11T03:43:51.943Z,60.25
2016-09-11T03:44:51.871Z,60.25
2016-09-11T03:45:51.861Z,60.73
2016-09-11T03:46:52.169Z,61.02
2016-09-11T03:47:51.825Z,60.54
2016-09-11T03:48:51.810Z,60.16
2016-09-11T03:49:51.795Z,60.16
2016-09-11T03:50:52.102Z,59.96
2016-09-11T03:51:51.785Z,60.25
2016-09-11T03:52:51.757Z,59.96
2016-09-11T03:53:51.731Z,59.96
2016-09-11T03:54:52.060Z,59.96
2016-09-11T03:55:51.717Z,60.44
2016-09-11T03:56:52.000Z,60.25
2016-09-11T03:57:52.050Z,60.16
2016-09-11T03:58:51.966Z,60.25
2016-09-11T03:59:51.961Z,60.06
2016-09-11T04:00:51.675Z,60.44
2016-09-11T04:01:51.923Z,60.25
2016-09-11T04:02:51.600Z,60.25
2016-09-11T04:03:51.614Z,60.44
2016-09-11T04:04:51.567Z,60.25
2016-09-11T04:05:51.553Z,60.25
2016-09-11T04:06:51.534Z,59.96
2016-09-11T04:07:51.522Z,60.25
2016-09-11T04:08:51.503Z,59.96
2016-09-11T04:09:51.491Z,60.16
2016-09-11T04:10:51.473Z,60.06
2016-09-11T04:11:51.460Z,60.25
2016-09-11T04:12:51.445Z,60.16
2016-09-11T04:13:51.428Z,60.25
2016-09-11T04:14:51.731Z,60.44
2016-09-11T04:15:51.706Z,60.25
2016-09-11T04:16:51.405Z,60.83
2016-09-11T04:17:51.686Z,60.44
2016-09-11T04:18:51.355Z,60.8
2016-09-11T04:19:51.333Z,60.8
2016-09-11T04:20:51.318Z,60.54
2016-09-11T04:21:51.302Z,60.8
2016-09-11T04:22:51.605Z,60.89
2016-09-11T04:23:51.273Z,60.83
2016-09-11T04:24:51.506Z,61.09
2016-09-11T04:25:51.559Z,60.83
2016-09-11T04:26:51.544Z,60.41
2016-09-11T04:27:51.520Z,60.89
2016-09-11T04:28:51.505Z,60.89
2016-09-11T04:29:51.490Z,61.09
2016-09-11T04:30:51.155Z,60.41
2016-09-11T04:31:51.458Z,60.8
2016-09-11T04:32:51.129Z,60.51
2016-09-11T04:33:51.426Z,60.41
2016-09-11T04:34:51.414Z,60.44
2016-09-11T04:35:51.401Z,61.09
2016-09-11T04:36:51.385Z,60.89
2016-09-11T04:37:51.367Z,60.99
2016-09-11T04:38:51.354Z,60.99
2016-09-11T04:39:51.330Z,60.8
2016-09-11T04:40:51.323Z,60.71
2016-09-11T04:41:51.304Z,60.71
2016-09-11T04:42:51.293Z,60.8
2016-09-11T04:43:51.274Z,60.99
2016-09-11T04:44:51.382Z,60.8
2016-09-11T04:45:51.237Z,60.89
2016-09-11T04:46:51.227Z,60.71
2016-09-11T04:47:51.210Z,60.89
2016-09-11T04:48:51.199Z,60.71
2016-09-11T04:49:51.182Z,60.99
2016-09-11T04:50:51.169Z,60.8
2016-09-11T04:51:51.159Z,60.89
2016-09-11T04:52:51.138Z,60.89
2016-09-11T04:53:51.120Z,60.8
2016-09-11T04:54:51.104Z,60.71
2016-09-11T04:55:51.095Z,60.71
2016-09-11T04:56:51.071Z,60.8
2016-09-11T04:57:51.060Z,61.09
2016-09-11T04:58:51.038Z,60.99
2016-09-11T04:59:51.030Z,61.28
2016-09-11T05:00:50.695Z,60.99
2016-09-11T05:01:50.997Z,60.99
2016-09-11T05:02:50.978Z,60.99
2016-09-11T05:03:50.971Z,60.99
2016-09-11T05:04:50.952Z,60.99
2016-09-11T05:05:50.936Z,60.89
2016-09-11T05:06:50.919Z,60.99
2016-09-11T05:07:50.905Z,60.8
2016-09-11T05:08:50.887Z,60.8
2016-09-11T05:09:50.876Z,60.8
2016-09-11T05:10:50.861Z,60.99
2016-09-11T05:11:50.847Z,60.89
2016-09-11T05:12:50.824Z,60.41
2016-09-11T05:13:50.823Z,60.41
2016-09-11T05:14:50.797Z,60.71
2016-09-11T05:15:50.789Z,60.51
2016-09-11T05:16:50.763Z,60.61
2016-09-11T05:17:50.756Z,60.8
2016-09-11T05:18:50.751Z,60.89
2016-09-11T05:19:50.719Z,60.13
2016-09-11T05:20:50.706Z,60.89
2016-09-11T05:21:50.758Z,60.51
2016-09-11T05:22:50.678Z,60.71
2016-09-11T05:23:50.661Z,60.61
2016-09-11T05:24:50.645Z,60.8
2016-09-11T05:25:50.628Z,60.89
2016-09-11T05:26:50.614Z,60.89
2016-09-11T05:27:50.604Z,60.89
2016-09-11T05:28:50.581Z,60.99
2016-09-11T05:29:50.258Z,60.61
2016-09-11T05:30:50.239Z,60.8
2016-09-11T05:31:50.538Z,60.8
2016-09-11T05:32:50.524Z,60.41
2016-09-11T05:33:50.517Z,60.41
2016-09-11T05:34:50.493Z,60.13
2016-09-11T05:35:50.481Z,60.99
2016-09-11T05:36:50.477Z,60.61
2016-09-11T05:37:50.440Z,60.8
2016-09-11T05:38:50.431Z,60.71
2016-09-11T05:39:50.414Z,60.71
2016-09-11T05:40:50.408Z,60.89
2016-09-11T05:41:50.067Z,60.8
2016-09-11T05:42:50.369Z,60.89
2016-09-11T05:43:50.355Z,60.99
2016-09-11T05:44:50.337Z,60.71
2016-09-11T05:45:50.325Z,60.61
2016-09-11T05:46:50.301Z,60.71
2016-09-11T05:47:50.292Z,60.89
2016-09-11T05:48:50.274Z,60.8
2016-09-11T05:49:50.262Z,60.41
2016-09-11T05:50:50.247Z,60.51
2016-09-11T05:51:50.227Z,60.13
2016-09-11T05:52:50.213Z,60.22
2016-09-11T05:53:50.201Z,60.22
2016-09-11T05:54:50.187Z,60.61
2016-09-11T05:55:50.169Z,60.51
2016-09-11T05:56:50.156Z,60.41
2016-09-11T05:57:50.142Z,60.13
2016-09-11T05:58:50.120Z,59.64
2016-09-11T05:59:50.115Z,59.64
2016-09-11T06:00:50.099Z,59.55
2016-09-11T06:01:50.077Z,59.83
2016-09-11T06:02:50.060Z,59.74
2016-09-11T06:03:50.047Z,59.64
2016-09-11T06:04:50.025Z,59.64
2016-09-11T06:05:50.012Z,59.64
2016-09-11T06:06:49.997Z,59.64
2016-09-11T06:07:49.994Z,59.74
2016-09-11T06:08:49.971Z,59.83
2016-09-11T06:09:49.957Z,59.55
2016-09-11T06:10:49.934Z,59.74
2016-09-11T06:11:49.603Z,59.55
2016-09-11T06:12:49.599Z,59.93
2016-09-11T06:13:49.577Z,59.74
2016-09-11T06:14:49.879Z,59.93
2016-09-11T06:15:49.554Z,59.64
2016-09-11T06:16:49.856Z,59.45
2016-09-11T06:17:49.838Z,59.35
2016-09-11T06:18:49.822Z,59.64
2016-09-11T06:19:49.802Z,59.64
2016-09-11T06:20:49.470Z,59.83
2016-09-11T06:21:49.777Z,59.25
2016-09-11T06:22:49.440Z,59.64
2016-09-11T06:23:49.420Z,59.16
2016-09-11T06:24:49.413Z,59.83
2016-09-11T06:25:49.393Z,59.83
2016-09-11T06:26:49.424Z,59.45
2016-09-11T06:27:49.807Z,59.64
2016-09-11T06:28:49.658Z,59.74
2016-09-11T06:29:49.670Z,59.45
2016-09-11T06:30:49.317Z,59.35
2016-09-11T06:31:49.633Z,59.25
2016-09-11T06:32:49.291Z,59.45
2016-09-11T06:33:49.590Z,59.55
2016-09-11T06:34:49.574Z,59.45
2016-09-11T06:35:49.236Z,59.74
2016-09-11T06:36:49.267Z,59.64
2016-09-11T06:37:49.529Z,59.45
2016-09-11T06:38:49.506Z,59.55
2016-09-11T06:39:49.183Z,59.06
2016-09-11T06:40:49.481Z,59.74
2016-09-11T06:41:49.149Z,59.25
2016-09-11T06:42:49.138Z,59.74
2016-09-11T06:43:49.120Z,59.35
2016-09-11T06:44:49.153Z,59.35
2016-09-11T06:45:49.401Z,59.55
2016-09-11T06:46:49.130Z,59.64
2016-09-11T06:47:49.072Z,59.45
2016-09-11T06:48:49.361Z,59.45
2016-09-11T06:49:49.025Z,59.74
2016-09-11T06:50:49.007Z,59.35
2016-09-11T06:51:48.993Z,59.16
2016-09-11T06:52:48.981Z,59.06
2016-09-11T06:53:48.980Z,59.74
2016-09-11T06:54:48.947Z,59.35
2016-09-11T06:55:48.948Z,59.35
2016-09-11T06:56:48.922Z,59.74
2016-09-11T06:57:48.900Z,60.13
2016-09-11T06:58:48.904Z,59.55
2016-09-11T06:59:49.208Z,59.74
2016-09-11T07:00:49.174Z,59.64
2016-09-11T07:01:49.162Z,59.55
2016-09-11T07:02:48.836Z,59.45
2016-09-11T07:03:48.850Z,59.55
2016-09-11T07:04:48.795Z,59.55
2016-09-11T07:05:49.092Z,59.25
2016-09-11T07:06:48.789Z,59.74
2016-09-11T07:07:48.779Z,59.55
2016-09-11T07:08:49.048Z,59.06
2016-09-11T07:09:48.741Z,59.06
2016-09-11T07:10:48.753Z,59.55
2016-09-11T07:11:49.000Z,59.35
2016-09-11T07:12:48.754Z,59.16
2016-09-11T07:13:48.665Z,59.19
2016-09-11T07:14:48.648Z,59.28
2016-09-11T07:15:48.630Z,59.06
2016-09-11T07:16:48.936Z,59.25
2016-09-11T07:17:48.914Z,59.25
2016-09-11T07:18:48.907Z,59.16
2016-09-11T07:19:48.891Z,58.97
2016-09-11T07:20:48.901Z,59.74
2016-09-11T07:21:48.532Z,59.45
2016-09-11T07:22:48.835Z,59.28
2016-09-11T07:23:48.508Z,59.09
2016-09-11T07:24:48.497Z,59
2016-09-11T07:25:48.791Z,59.19
2016-09-11T07:26:48.456Z,59.48
2016-09-11T07:27:48.442Z,59.96
2016-09-11T07:28:48.737Z,59.86
2016-09-11T07:29:48.411Z,59.25
2016-09-11T07:30:48.396Z,59.58
2016-09-11T07:31:48.377Z,59.77
2016-09-11T07:32:48.368Z,59.77
2016-09-11T07:33:48.378Z,59.38
2016-09-11T07:34:48.664Z,59.67
2016-09-11T07:35:48.649Z,59.28
2016-09-11T07:36:48.317Z,59.19
2016-09-11T07:37:48.603Z,59.96
2016-09-11T07:38:48.291Z,59.09
2016-09-11T07:39:48.589Z,59.38
2016-09-11T07:40:48.605Z,59.38
2016-09-11T07:41:48.557Z,59.09
2016-09-11T07:42:48.243Z,59.58
2016-09-11T07:43:48.555Z,59.09
2016-09-11T07:44:48.182Z,59.19
2016-09-11T07:45:48.487Z,59.09
2016-09-11T07:46:48.177Z,59.48
2016-09-11T07:47:48.216Z,59.38
2016-09-11T07:48:48.130Z,59.38
2016-09-11T07:49:48.099Z,58.9
2016-09-11T07:50:48.084Z,59
2016-09-11T07:51:48.385Z,59
2016-09-11T07:52:48.055Z,59.09
2016-09-11T07:53:48.179Z,59
2016-09-11T07:54:48.351Z,59.19
2016-09-11T07:55:48.019Z,59
2016-09-11T07:56:48.023Z,59.38
2016-09-11T07:57:47.996Z,58.8
2016-09-11T07:58:48.350Z,58.9
2016-09-11T07:59:47.952Z,59.28
2016-09-11T08:00:47.934Z,59.48
2016-09-11T08:01:48.249Z,59.48
2016-09-11T08:02:48.230Z,59.09
2016-09-11T08:03:48.349Z,58.9
2016-09-11T08:04:47.892Z,59
2016-09-11T08:05:48.181Z,59.67
2016-09-11T08:06:47.840Z,59
2016-09-11T08:07:47.856Z,58.9
2016-09-11T08:08:48.121Z,59.28
2016-09-11T08:09:47.794Z,59.19
2016-09-11T08:10:48.167Z,58.8
2016-09-11T08:11:48.081Z,59.48
2016-09-11T08:12:47.794Z,58.9
2016-09-11T08:13:47.734Z,59.28
2016-09-11T08:14:47.722Z,59.09
2016-09-11T08:15:48.042Z,59.09
2016-09-11T08:16:47.701Z,59.28
2016-09-11T08:17:47.720Z,59.09
2016-09-11T08:18:47.978Z,59.19
2016-09-11T08:19:47.954Z,59.19
2016-09-11T08:20:47.624Z,59
2016-09-11T08:21:47.604Z,59.19
2016-09-11T08:22:47.594Z,58.9
2016-09-11T08:23:47.577Z,59
2016-09-11T08:24:47.728Z,58.9
2016-09-11T08:25:47.545Z,59.19
2016-09-11T08:26:47.534Z,58.8
2016-09-11T08:27:47.853Z,59.38
2016-09-11T08:28:47.816Z,59.28
2016-09-11T08:29:47.799Z,59
2016-09-11T08:30:47.780Z,59.58
2016-09-11T08:31:47.460Z,59
2016-09-11T08:32:47.447Z,58.9
2016-09-11T08:33:47.449Z,58.9
2016-09-11T08:34:47.723Z,59.19
2016-09-11T08:35:47.397Z,59
2016-09-11T08:36:47.390Z,58.9
2016-09-11T08:37:47.366Z,59.28
2016-09-11T08:38:47.672Z,59.48
2016-09-11T08:39:47.333Z,59.28
2016-09-11T08:40:47.651Z,59.48
2016-09-11T08:41:47.350Z,59.48
2016-09-11T08:42:47.289Z,59.41
2016-09-11T08:43:47.422Z,59.96
2016-09-11T08:44:47.270Z,59.48
2016-09-11T08:45:47.252Z,59.67
2016-09-11T08:46:47.232Z,59.67
2016-09-11T08:47:47.215Z,59.38
2016-09-11T08:48:47.533Z,59.48
2016-09-11T08:49:47.515Z,59.67
2016-09-11T08:50:47.160Z,59.77
2016-09-11T08:51:47.486Z,59.48
2016-09-11T08:52:47.291Z,59.86
2016-09-11T08:53:47.439Z,59.7
2016-09-11T08:54:47.102Z,59.86
2016-09-11T08:55:47.404Z,60.54
2016-09-11T08:56:47.138Z,60.44
2016-09-11T08:57:47.067Z,60.16
2016-09-11T08:58:47.049Z,60.06
2016-09-11T08:59:47.033Z,60.54
2016-09-11T09:00:47.029Z,60.16
2016-09-11T09:01:46.994Z,60.25
2016-09-11T09:02:47.035Z,60.25
2016-09-11T09:03:47.119Z,60.18
2016-09-11T09:04:46.965Z,60.28
2016-09-11T09:05:46.943Z,60.18
2016-09-11T09:06:46.923Z,60.28
2016-09-11T09:07:46.936Z,60.47
2016-09-11T09:08:46.885Z,60.64
2016-09-11T09:09:46.876Z,60.25
2016-09-11T09:10:46.851Z,60.18
2016-09-11T09:11:47.162Z,60.16
2016-09-11T09:12:46.826Z,60.44
2016-09-11T09:13:46.816Z,60.06
2016-09-11T09:14:47.117Z,60.06
2016-09-11T09:15:46.783Z,60.28
2016-09-11T09:16:47.173Z,61.05
2016-09-11T09:17:46.811Z,60.96
2016-09-11T09:18:49.494Z,59.96
2016-09-11T09:19:46.747Z,60.25
2016-09-11T09:20:46.711Z,60.93
2016-09-11T09:21:47.003Z,61.05
2016-09-11T09:22:46.690Z,60.83
2016-09-11T09:23:46.655Z,60.64
2016-09-11T09:24:46.643Z,60.96
2016-09-11T09:25:46.631Z,60.18
2016-09-11T09:26:46.934Z,60.18
2016-09-11T09:27:46.920Z,60.64
2016-09-11T09:28:46.595Z,60.44
2016-09-11T09:29:46.571Z,60.25
2016-09-11T09:30:46.573Z,59.96
2016-09-11T09:31:46.547Z,60.44
2016-09-11T09:32:46.841Z,60.09
2016-09-11T09:33:46.604Z,61.12
2016-09-11T09:34:46.497Z,60.54
2016-09-11T09:35:46.481Z,60.47
2016-09-11T09:36:46.771Z,60.09
2016-09-11T09:37:46.477Z,60.47
2016-09-11T09:38:46.753Z,60.35
2016-09-11T09:39:46.421Z,60.28
2016-09-11T09:40:46.401Z,60.16
2016-09-11T09:41:46.423Z,60.64
2016-09-11T09:42:46.375Z,60.09
2016-09-11T09:43:46.401Z,60.93
2016-09-11T09:44:46.345Z,60.93
2016-09-11T09:45:46.323Z,60.67
2016-09-11T09:46:46.307Z,60.28
2016-09-11T09:47:46.294Z,60.09
2016-09-11T09:48:46.374Z,60.67
2016-09-11T09:49:46.262Z,60.44
2016-09-11T09:50:46.243Z,60.18
2016-09-11T09:51:46.543Z,60.44
2016-09-11T09:52:46.211Z,60.18
2016-09-11T09:53:46.513Z,60.18
2016-09-11T09:54:46.516Z,60.38
2016-09-11T09:55:46.491Z,60.73
2016-09-11T09:56:46.475Z,60.83
2016-09-11T09:57:46.137Z,60.44
2016-09-11T09:58:46.136Z,60.18
2016-09-11T09:59:46.109Z,61.05
2016-09-11T10:00:46.097Z,60.28
2016-09-11T10:01:46.080Z,60.47
2016-09-11T10:02:46.083Z,60.47
2016-09-11T10:03:46.057Z,60.67
2016-09-11T10:04:46.031Z,60.57
2016-09-11T10:05:46.328Z,59.99
2016-09-11T10:06:46.321Z,60.09
2016-09-11T10:07:45.990Z,60.38
2016-09-11T10:08:45.967Z,60.28
2016-09-11T10:09:45.956Z,60.28
2016-09-11T10:10:46.253Z,61.15
2016-09-11T10:11:45.955Z,60.47
2016-09-11T10:12:46.224Z,60.96
2016-09-11T10:13:46.584Z,61.05
2016-09-11T10:14:46.192Z,61.15
2016-09-11T10:15:45.909Z,60.47
2016-09-11T10:16:45.863Z,60.28
2016-09-11T10:17:45.826Z,60.96
2016-09-11T10:18:45.867Z,60.86
2016-09-11T10:19:45.806Z,60.86
2016-09-11T10:20:45.810Z,60.96
2016-09-11T10:21:46.087Z,60.67
2016-09-11T10:22:45.778Z,60.96
2016-09-11T10:23:45.738Z,60.47
2016-09-11T10:24:46.063Z,60.67
2016-09-11T10:25:45.711Z,60.96
2016-09-11T10:26:45.701Z,60.96
2016-09-11T10:27:45.798Z,60.96
2016-09-11T10:28:45.982Z,61.15
2016-09-11T10:29:45.662Z,60.96
2016-09-11T10:30:45.647Z,60.67
2016-09-11T10:31:45.953Z,60.28
2016-09-11T10:32:45.606Z,60.28
2016-09-11T10:33:45.936Z,60.57
2016-09-11T10:34:45.573Z,60.47
2016-09-11T10:35:45.880Z,60.47
2016-09-11T10:36:45.713Z,60.09
2016-09-11T10:37:45.546Z,59.99
2016-09-11T10:38:45.510Z,60.18
2016-09-11T10:39:45.511Z,60.09
2016-09-11T10:40:45.519Z,60.09
2016-09-11T10:41:45.808Z,59.99
2016-09-11T10:42:45.456Z,60.09
2016-09-11T10:43:45.774Z,60.28
2016-09-11T10:44:45.421Z,60.86
2016-09-11T10:45:45.413Z,60.96
2016-09-11T10:46:45.390Z,60.57
2016-09-11T10:47:45.702Z,60.76
2016-09-11T10:48:45.386Z,60.96
2016-09-11T10:49:45.674Z,60.76
2016-09-11T10:50:45.403Z,60.57
2016-09-11T10:51:45.347Z,60.76
2016-09-11T10:52:45.635Z,60.76
2016-09-11T10:53:45.292Z,60.6
2016-09-11T10:54:45.490Z,60.67
2016-09-11T10:55:45.571Z,60.76
2016-09-11T10:56:45.577Z,60.57
2016-09-11T10:57:45.534Z,60.76
2016-09-11T10:58:45.206Z,60.76
2016-09-11T10:59:45.194Z,60.76
2016-09-11T11:00:45.493Z,61.15
2016-09-11T11:01:45.180Z,60.18
2016-09-11T11:02:45.153Z,60.96
2016-09-11T11:03:45.210Z,60.47
2016-09-11T11:04:45.438Z,60.47
2016-09-11T11:05:45.420Z,60.28
2016-09-11T11:06:45.109Z,60.38
2016-09-11T11:07:45.093Z,60.57
2016-09-11T11:08:45.060Z,60.67
2016-09-11T11:09:45.378Z,60.67
2016-09-11T11:10:45.046Z,60.21
2016-09-11T11:11:45.016Z,60.6
2016-09-11T11:12:45.322Z,60.11
2016-09-11T11:13:44.982Z,59.83
2016-09-11T11:14:45.304Z,60.6
2016-09-11T11:15:45.280Z,60.5
2016-09-11T11:16:44.937Z,60.5
2016-09-11T11:17:44.926Z,59.92
2016-09-11T11:18:44.910Z,60.41
2016-09-11T11:19:44.905Z,60.21
2016-09-11T11:20:44.891Z,60.21
2016-09-11T11:21:44.860Z,60.5
2016-09-11T11:22:44.847Z,59.63
2016-09-11T11:23:44.825Z,59.99
2016-09-11T11:24:45.128Z,59.8
2016-09-11T11:25:45.123Z,59.63
2016-09-11T11:26:45.135Z,59.83
2016-09-11T11:27:44.776Z,59.73
2016-09-11T11:28:45.086Z,59.83
2016-09-11T11:29:44.766Z,59.63
2016-09-11T11:30:45.045Z,59.34
2016-09-11T11:31:45.041Z,59.53
2016-09-11T11:32:44.700Z,59.34
2016-09-11T11:33:44.697Z,59.34
2016-09-11T11:34:44.988Z,59.92
2016-09-11T11:35:44.650Z,59.44
2016-09-11T11:36:44.967Z,59.83
2016-09-11T11:37:44.931Z,59.44
2016-09-11T11:38:45.073Z,59.63
2016-09-11T11:39:44.600Z,59.53
2016-09-11T11:40:44.588Z,59.73
2016-09-11T11:41:44.570Z,59.83
2016-09-11T11:42:44.554Z,59.83
2016-09-11T11:43:44.536Z,59.63
2016-09-11T11:44:44.829Z,59.83
2016-09-11T11:45:44.808Z,59.73
2016-09-11T11:46:44.817Z,59.92
2016-09-11T11:47:44.472Z,59.92
2016-09-11T11:49:17.257Z,59.92
2016-09-11T11:49:44.455Z,59.83
2016-09-11T11:50:44.433Z,59.92
2016-09-11T11:51:44.730Z,60.02
2016-09-11T11:52:44.396Z,59.92
2016-09-11T11:53:44.380Z,59.83
2016-09-11T11:54:44.370Z,59.73
2016-09-11T11:55:44.663Z,59.34
2016-09-11T11:56:44.339Z,59.34
2016-09-11T11:57:44.329Z,59.53
2016-09-11T11:58:44.303Z,59.73
2016-09-11T11:59:44.293Z,59.44
2016-09-11T12:00:44.270Z,59.92
2016-09-11T12:01:44.261Z,59.73
2016-09-11T12:02:44.559Z,59.34
2016-09-11T12:03:44.247Z,59.15
2016-09-11T12:04:44.210Z,59.25
2016-09-11T12:05:44.218Z,59.05
2016-09-11T12:06:44.190Z,58.95
2016-09-11T12:07:44.175Z,58.95
2016-09-11T12:08:44.163Z,58.86
2016-09-11T12:09:44.153Z,59.34
2016-09-11T12:10:44.436Z,59.05
2016-09-11T12:11:44.109Z,59.25
2016-09-11T12:12:44.421Z,59.53
2016-09-11T12:13:44.449Z,59.18
2016-09-11T12:14:44.385Z,59.05
2016-09-11T12:15:44.365Z,59.08
2016-09-11T12:16:44.356Z,58.89
2016-09-11T12:17:44.025Z,59.08
2016-09-11T12:18:44.001Z,58.98
2016-09-11T12:19:43.995Z,59.08
2016-09-11T12:20:44.309Z,59.08
2016-09-11T12:21:43.955Z,59.34
2016-09-11T12:22:44.274Z,59.38
2016-09-11T12:23:43.954Z,59.38
2016-09-11T12:24:43.921Z,59.18
2016-09-11T12:25:44.015Z,59.28
2016-09-11T12:26:44.198Z,59.38
2016-09-11T12:27:43.867Z,59.25
2016-09-11T12:28:43.863Z,59.83
2016-09-11T12:29:43.852Z,59.28
2016-09-11T12:30:44.137Z,59.28
2016-09-11T12:31:44.145Z,59.47
2016-09-11T12:32:43.788Z,59.38
2016-09-11T12:33:43.784Z,59.38
2016-09-11T12:34:44.117Z,59.38
2016-09-11T12:35:43.765Z,59.08
2016-09-11T12:36:44.065Z,59.08
2016-09-11T12:37:43.732Z,58.89
2016-09-11T12:38:43.713Z,59.38
2016-09-11T12:39:43.697Z,59.47
2016-09-11T12:40:43.702Z,59.28
2016-09-11T12:41:43.682Z,59.18
2016-09-11T12:42:43.645Z,58.8
2016-09-11T12:43:43.630Z,59.08
2016-09-11T12:44:43.623Z,59.28
2016-09-11T12:45:43.603Z,59.08
2016-09-11T12:46:43.603Z,58.89
2016-09-11T12:47:43.576Z,58.98
2016-09-11T12:48:43.558Z,58.89
2016-09-11T12:49:43.536Z,58.5
2016-09-11T12:50:43.831Z,58.89
2016-09-11T12:51:43.846Z,58.6
2016-09-11T12:52:43.814Z,58.5
2016-09-11T12:53:43.494Z,59.08
2016-09-11T12:54:43.816Z,58.6
2016-09-11T12:55:43.467Z,58.7
2016-09-11T12:56:43.440Z,58.8